Wetterdaten: aktuell Mittwoch, 06.05.2026 11:40
Datum Zeit Arbeit-Z. Temp. A. Bod.+5cm Temp. A. min Temp. A. max Bl.Temp +1m BTemp -5cm BTemp -10cm BTemp -20cm BTemp -50cm Feuchte I. Feuchte A. BlattFeu +1m BFeucht -5cm BFeucht-10cm BFeucht-20cm BFeucht-50cm Luftdruck Regen Wind Richtung Richtung Sonnenschein ET UV Solar Taupunkt Windchill Windböen Empfang
06.05.2026 11:40 22,8 °C 17,6 °C 17,2 °C 17,1 °C 17,6 °C 15,0 °C 15,0 °C 14,4 °C 14,4 °C 14,4 °C 49 % 74 % 0 lf 200 cb 200 cb 140 cb 88 cb 1003,7 hPa 0,0 l/m² 5,1 km/h (1 Bft) N-NW 342 ° 55 min 0,254 mm 3,3 UV-I 708 W/m² 12,9 °C 17,6 °C 12,9 km/h (3 Bft) 92,73 %
06.05.2026 10:40 22,8 °C 17,7 °C 16,7 °C 17,7 °C 17,9 °C 14,4 °C 14,4 °C 14,4 °C 14,4 °C 14,4 °C 48 % 73 % 0 lf 200 cb 200 cb 140 cb 88 cb 1003,5 hPa 0,0 l/m² 5,8 km/h (2 Bft) NW 311 ° 60 min 0,203 mm 1,5 UV-I 163 W/m² 12,8 °C 17,7 °C 14,5 km/h (3 Bft) 97,73 %
06.05.2026 09:40 22,8 °C 17,3 °C 15,0 °C 16,9 °C 17,3 °C 13,3 °C 13,3 °C 14,4 °C 14,4 °C 14,4 °C 49 % 78 % 0 lf 200 cb 200 cb 140 cb 88 cb 1003,3 hPa 0,0 l/m² 4,2 km/h (1 Bft) NW 321 ° 60 min 0,127 mm 1,8 UV-I 577 W/m² 13,4 °C 17,3 °C 8,0 km/h (2 Bft) 91,94 %
06.05.2026 08:40 22,8 °C 14,7 °C 13,3 °C 14,6 °C 14,7 °C 13,3 °C 13,3 °C 14,4 °C 15,0 °C 14,4 °C 49 % 87 % 15 lf 200 cb 200 cb 142 cb 88 cb 1003,4 hPa 0,0 l/m² 0,8 km/h (0 Bft) SO 146 ° 50 min 0,051 mm 0,9 UV-I 221 W/m² 12,6 °C 14,7 °C 3,2 km/h (1 Bft) 95,83 %
06.05.2026 07:40 22,8 °C 11,6 °C 10,6 °C 11,4 °C 11,6 °C 13,3 °C 13,3 °C 14,4 °C 15,0 °C 14,4 °C 49 % 96 % 15 lf 200 cb 200 cb 142 cb 88 cb 1003,7 hPa 0,0 l/m² 0,7 km/h (0 Bft) S-SO 155 ° 0 min 0,000 mm 0,0 UV-I 148 W/m² 11,0 °C 11,6 °C 1,6 km/h (1 Bft) 96,64 %
06.05.2026 06:40 22,8 °C 10,3 °C 9,4 °C 10,3 °C 10,3 °C 13,9 °C 13,9 °C 15,0 °C 15,0 °C 14,4 °C 48 % 95 % 15 lf 200 cb 200 cb 143 cb 88 cb 1003,9 hPa 0,0 l/m² 1,0 km/h (0 Bft) S-SO 155 ° 0 min 0,000 mm 0,0 UV-I 21 W/m² 9,5 °C 10,3 °C 3,2 km/h (1 Bft) 96,67 %
06.05.2026 05:40 22,8 °C 11,1 °C 10,0 °C 11,0 °C 11,2 °C 13,9 °C 13,9 °C 15,0 °C 15,0 °C 14,4 °C 48 % 94 % 15 lf 200 cb 200 cb 143 cb 87 cb 1003,8 hPa 0,0 l/m² 1,2 km/h (1 Bft) S 182 ° 0 min 0,000 mm 0,0 UV-I 0 W/m² 10,2 °C 11,1 °C 3,2 km/h (1 Bft) 94,92 %
06.05.2026 04:40 22,8 °C 12,3 °C 11,1 °C 12,3 °C 12,3 °C 13,9 °C 13,9 °C 15,0 °C 15,0 °C 14,4 °C 48 % 94 % 15 lf 200 cb 200 cb 144 cb 87 cb 1004,2 hPa 0,0 l/m² 0,4 km/h (0 Bft) S 182 ° 0 min 0,000 mm 0,0 UV-I 0 W/m² 11,4 °C 12,3 °C 1,6 km/h (1 Bft) 95,33 %
06.05.2026 03:40 22,9 °C 12,3 °C 11,1 °C 12,2 °C 12,3 °C 14,4 °C 14,4 °C 15,0 °C 15,0 °C 14,4 °C 48 % 95 % 15 lf 200 cb 200 cb 145 cb 87 cb 1004,4 hPa 0,0 l/m² 1,5 km/h (1 Bft) S 184 ° 0 min 0,000 mm 0,0 UV-I 0 W/m² 11,5 °C 12,3 °C 4,8 km/h (1 Bft) 94,83 %
06.05.2026 02:40 22,9 °C 11,9 °C 11,1 °C 11,9 °C 12,0 °C 14,4 °C 14,4 °C 15,0 °C 15,0 °C 14,4 °C 49 % 94 % 15 lf 200 cb 200 cb 146 cb 87 cb 1004,6 hPa 0,0 l/m² 0,9 km/h (0 Bft) O-SO 123 ° 0 min 0,000 mm 0,0 UV-I 0 W/m² 11,0 °C 11,9 °C 4,8 km/h (1 Bft) 95,73 %
06.05.2026 01:40 22,9 °C 12,9 °C 11,7 °C 12,9 °C 12,9 °C 14,4 °C 14,4 °C 15,6 °C 15,0 °C 14,4 °C 49 % 94 % 15 lf 200 cb 200 cb 148 cb 87 cb 1005,0 hPa 0,0 l/m² 1,1 km/h (1 Bft) S 191 ° 0 min 0,000 mm 0,0 UV-I 0 W/m² 12,0 °C 12,9 °C 3,2 km/h (1 Bft) 93,55 %
06.05.2026 00:40 23,0 °C 12,8 °C 11,7 °C 12,8 °C 12,8 °C 15,0 °C 15,0 °C 15,6 °C 15,0 °C 14,4 °C 50 % 93 % 15 lf 200 cb 200 cb 149 cb 87 cb 1005,5 hPa 0,0 l/m² 1,5 km/h (1 Bft) S-SO 167 ° 0 min 0,000 mm 0,0 UV-I 0 W/m² 11,7 °C 12,8 °C 4,8 km/h (1 Bft) 97,25 %
05.05.2026 23:40 23,0 °C 13,3 °C 12,2 °C 13,3 °C 13,4 °C 15,0 °C 15,0 °C 15,6 °C 15,0 °C 14,4 °C 50 % 93 % 15 lf 200 cb 200 cb 151 cb 87 cb 1005,2 hPa 0,0 l/m² 1,1 km/h (1 Bft) O-SO 108 ° 0 min 0,000 mm 0,0 UV-I 0 W/m² 12,2 °C 13,3 °C 3,2 km/h (1 Bft) 93,81 %
05.05.2026 22:40 23,0 °C 13,8 °C 12,8 °C 13,7 °C 13,8 °C 15,6 °C 15,6 °C 15,6 °C 15,0 °C 14,4 °C 50 % 94 % 15 lf 200 cb 200 cb 154 cb 87 cb 1005,2 hPa 0,2 l/m² 2,0 km/h (1 Bft) S-SO 157 ° 0 min 0,000 mm 0,0 UV-I 0 W/m² 12,9 °C 13,8 °C 4,8 km/h (1 Bft) 95,83 %
05.05.2026 21:40 23,0 °C 14,2 °C 12,8 °C 14,2 °C 14,3 °C 15,6 °C 15,6 °C 15,6 °C 15,0 °C 14,4 °C 50 % 93 % 15 lf 200 cb 200 cb 157 cb 87 cb 1004,8 hPa 0,0 l/m² 2,5 km/h (1 Bft) O-SO 112 ° 0 min 0,000 mm 0,0 UV-I 0 W/m² 13,1 °C 14,2 °C 6,4 km/h (2 Bft) 99,18 %
05.05.2026 20:40 23,1 °C 14,9 °C 13,9 °C 14,9 °C 15,1 °C 16,1 °C 16,1 °C 15,6 °C 15,0 °C 14,4 °C 50 % 92 % 15 lf 200 cb 200 cb 160 cb 88 cb 1004,7 hPa 4,4 l/m² 0,7 km/h (0 Bft) O 93 ° 0 min 0,001 mm 0,0 UV-I 0 W/m² 13,6 °C 14,9 °C 3,2 km/h (1 Bft) 97,32 %
05.05.2026 19:40 23,1 °C 16,0 °C 14,4 °C 15,9 °C 16,2 °C 16,1 °C 16,1 °C 15,6 °C 15,0 °C 14,4 °C 50 % 89 % 15 lf 200 cb 200 cb 171 cb 90 cb 1004,3 hPa 2,2 l/m² 2,2 km/h (1 Bft) S 190 ° 0 min 0,050 mm 0,0 UV-I 5 W/m² 14,2 °C 16,0 °C 6,4 km/h (2 Bft) 98,25 %
05.05.2026 18:40 23,2 °C 17,7 °C 16,7 °C 17,7 °C 17,9 °C 16,1 °C 16,1 °C 15,6 °C 15,0 °C 14,4 °C 49 % 78 % 0 lf 200 cb 200 cb 171 cb 90 cb 1004,3 hPa 0,0 l/m² 2,6 km/h (1 Bft) W-NW 298 ° 25 min 0,280 mm 0,0 UV-I 56 W/m² 13,8 °C 17,7 °C 6,4 km/h (2 Bft) 93,16 %
05.05.2026 17:40 23,0 °C 19,4 °C 20,0 °C 18,9 °C 19,5 °C 16,1 °C 16,1 °C 15,6 °C 15,0 °C 14,4 °C 50 % 73 % 0 lf 200 cb 200 cb 171 cb 90 cb 1004,2 hPa 0,0 l/m² 4,8 km/h (1 Bft) NW 313 ° 60 min 0,152 mm 1,6 UV-I 596 W/m² 14,4 °C 19,4 °C 6,4 km/h (2 Bft) 99,08 %
05.05.2026 16:40 22,6 °C 16,8 °C 17,2 °C 16,6 °C 16,8 °C 16,1 °C 16,1 °C 15,6 °C 15,0 °C 14,4 °C 51 % 82 % 15 lf 200 cb 200 cb 171 cb 90 cb 1004,7 hPa 0,0 l/m² 2,2 km/h (1 Bft) S 183 ° 55 min 0,102 mm 1,8 UV-I 475 W/m² 13,7 °C 16,8 °C 4,8 km/h (1 Bft) 100,00 %
05.05.2026 15:40 22,4 °C 16,1 °C 14,4 °C 16,1 °C 16,2 °C 16,1 °C 16,1 °C 15,6 °C 15,0 °C 14,4 °C 51 % 83 % 15 lf 200 cb 200 cb 171 cb 89 cb 1005,4 hPa 0,4 l/m² 1,0 km/h (0 Bft) S 181 ° 50 min 0,076 mm 0,9 UV-I 178 W/m² 13,2 °C 16,1 °C 3,2 km/h (1 Bft) 92,50 %
05.05.2026 14:40 22,3 °C 16,3 °C 15,0 °C 16,2 °C 16,3 °C 16,1 °C 16,1 °C 15,6 °C 15,0 °C 14,4 °C 51 % 87 % 15 lf 200 cb 200 cb 171 cb 89 cb 1006,0 hPa 0,8 l/m² 0,3 km/h (0 Bft) O 85 ° 5 min 0,076 mm 1,0 UV-I 162 W/m² 14,1 °C 16,3 °C 3,2 km/h (1 Bft) 97,46 %
05.05.2026 13:40 21,9 °C 17,4 °C 16,7 °C 17,4 °C 17,5 °C 16,1 °C 16,1 °C 15,0 °C 15,0 °C 14,4 °C 50 % 78 % 15 lf 200 cb 200 cb 171 cb 89 cb 1005,9 hPa 0,0 l/m² 3,3 km/h (1 Bft) N 350 ° 30 min 0,229 mm 0,9 UV-I 156 W/m² 13,5 °C 17,4 °C 6,4 km/h (2 Bft) 94,87 %
05.05.2026 12:40 22,2 °C 18,5 °C 18,3 °C 18,5 °C 18,8 °C 15,6 °C 15,6 °C 15,0 °C 15,0 °C 14,4 °C 48 % 69 % 0 lf 200 cb 200 cb 170 cb 89 cb 1005,9 hPa 0,0 l/m² 4,4 km/h (1 Bft) W-NW 282 ° 40 min 0,203 mm 1,8 UV-I 278 W/m² 12,7 °C 18,5 °C 9,7 km/h (2 Bft) 96,36 %
05.05.2026 12:00 22,7 °C 18,9 °C 19,4 °C 18,7 °C 18,9 °C 15,6 °C 15,6 °C 15,0 °C 15,0 °C 14,4 °C 48 % 69 % 0 lf 200 cb 200 cb 170 cb 89 cb 1006,1 hPa 0,0 l/m² 4,9 km/h (1 Bft) N-NW 342 ° 0 min 0,203 mm 3,3 UV-I 557 W/m² 13,1 °C 18,9 °C 14,5 km/h (3 Bft) 95,12 %
_ Min-Zeit 12:55 06:35 05:30 06:35 06:40 07:05 07:05 07:40 09:25 12:00 12:00 12:20 12:00 12:00 12:00 09:25 20:45 09:05 - 15:45 - - - - - - 06:35 06:35 02:10 16:05
Minimum _ 21,8 °C 10,3 °C 9,4 °C 10,3 °C 10,3 °C 13,3 °C 13,3 °C 14,4 °C 14,4 °C 14,4 °C 48 % 66 % 0 lf 200 cb 200 cb 140 cb 87 cb 1003,0 hPa - 0,0 km/h (0 Bft) - - - - - - 9,5 °C 10,3 °C 0,0 km/h (0 Bft) 88,03 %
_ Max-Zeit 17:55 12:15 17:55 12:15 12:15 12:50 12:50 14:10 12:00 12:00 15:05 07:15 13:30 12:00 12:00 12:50 16:00 12:00 19:40 11:15 - - 12:00 18:00 12:10 11:15 17:55 12:15 10:45 12:15
Maximum _ 23,2 °C 19,7 °C 21,7 °C 19,4 °C 19,7 °C 16,1 °C 16,1 °C 15,6 °C 15,0 °C 14,4 °C 52 % 96 % 15 lf 200 cb 200 cb 171 cb 90 cb 1006,1 hPa 0,8 l/m² 7,3 km/h
N (2 Bft)
- - 5 min 0,280 mm 3,9 UV-I 860 W/m² 15,0 °C 19,6 °C 17,7 km/h
N-NO (3 Bft)
100,00 %
Durchschnitt _ 22,8 °C 15,2 °C 14,2 °C 15,1 °C 15,2 °C 15,0 °C 15,0 °C 15,2 °C 14,9 °C 14,4 °C 49 % 86 % 10 lf 200 cb 200 cb 156 cb 88 cb 1004,7 hPa #8,0 l/m² 2,0 km/h (1 Bft) S-SO - #3:45 h #0,635 mm 1,5 UV-I 248 W/m² 12,6 °C 15,2 °C 5,8 km/h (2 Bft) 95,74 %
copy; 2009 Dieter Kraft